Romero, Texas
Current Conditions -  °F | °C
As of 3:53 AM on Friday 24 Oct 2014 (Local Time) from KDHT Reporting Station
Clear Clear  
Wind Chill: 52°   Ceiling: Unl
Heat Index: 52°   Visibility: 10mi
Dew Point: 45°   Wind: 9mph
Humidity: 77%   Direction: 310°NW
Pressure: 30.15"   Gusts: NA
Location:  35.73°N, 102.93°W
Report Text: KDHT 240853Z AUTO 31008KT 10SM CLR 11/07 A3015 RMK AO2 SLP165 T01110072 58004
Loading
Personal Weather Stations






























Interactive Weather Map
Tropical Storm Tracking
New forecast layout! Learn more

10-Day Weather Forecast

Advertisements
Track Severe Weather on mobile